Time;durP1;ratioP1;P1;durP2;ratioP2;P2;SDS_P1;SDS_P2;PMS_P1;PMS_P2;Temp;Humidity;BMP_temperature;BMP_pressure;BME280_temperature;BME280_humidity;BME280_pressure;Samples;Min_cycle;Max_cycle;Signal;HPM_P1;HPM_P2
2022/08/09 00:00:05;;;;;;;7.22;4.30;;;15.50;99.90;;;;;;5092365;28;20054;-71
2022/08/09 00:02:32;;;;;;;6.88;4.57;;;15.40;99.90;;;;;;5073779;28;20506;-71
2022/08/09 00:04:58;;;;;;;6.95;4.00;;;15.40;99.90;;;;;;5083755;28;20577;-71
2022/08/09 00:07:24;;;;;;;7.38;4.28;;;15.40;99.90;;;;;;5077561;28;20083;-71
2022/08/09 00:09:50;;;;;;;6.63;4.15;;;15.30;99.90;;;;;;5094144;28;20079;-71
2022/08/09 00:12:16;;;;;;;8.75;4.13;;;15.30;99.90;;;;;;5093722;28;20042;-71
2022/08/09 00:14:41;;;;;;;4.57;3.92;;;15.30;99.90;;;;;;5093906;28;20394;-71
2022/08/09 00:17:07;;;;;;;8.75;4.15;;;15.30;99.90;;;;;;5080327;28;20036;-71
2022/08/09 00:19:33;;;;;;;4.05;3.65;;;15.30;99.90;;;;;;5082121;28;20121;-71
2022/08/09 00:21:58;;;;;;;4.35;3.60;;;15.30;99.90;;;;;;5075263;28;20115;-72
2022/08/09 00:24:25;;;;;;;4.30;3.88;;;15.20;99.90;;;;;;5098418;28;20036;-72
2022/08/09 00:26:51;;;;;;;5.32;4.60;;;15.20;99.90;;;;;;5112002;28;20047;-71
2022/08/09 00:29:16;;;;;;;5.47;4.15;;;15.20;99.90;;;;;;5079823;28;20039;-71
2022/08/09 00:31:42;;;;;;;5.22;4.18;;;15.10;99.90;;;;;;5107880;28;20028;-71
2022/08/09 00:34:08;;;;;;;8.27;4.18;;;15.10;99.90;;;;;;5084775;28;20044;-71
2022/08/09 00:36:34;;;;;;;6.25;4.47;;;15.10;99.90;;;;;;5108230;28;20050;-71
2022/08/09 00:39:00;;;;;;;5.32;4.78;;;15.10;99.90;;;;;;5095996;28;20047;-72
2022/08/09 00:41:26;;;;;;;7.40;4.65;;;15.10;99.90;;;;;;5096868;28;20032;-71
2022/08/09 00:43:51;;;;;;;6.57;4.50;;;15.10;99.90;;;;;;5091519;28;20453;-71
2022/08/09 00:46:17;;;;;;;4.93;4.22;;;15.10;99.90;;;;;;5105935;28;20358;-71
2022/08/09 00:48:43;;;;;;;6.10;4.60;;;15.10;99.90;;;;;;5095370;28;20036;-71
2022/08/09 00:51:09;;;;;;;6.97;5.10;;;15.00;99.90;;;;;;5078977;28;20051;-71
2022/08/09 00:53:36;;;;;;;6.25;4.30;;;15.00;99.90;;;;;;5094116;28;20050;-71
2022/08/09 00:56:04;;;;;;;6.63;4.45;;;15.00;99.90;;;;;;5085596;28;20055;-72
2022/08/09 00:58:30;;;;;;;7.68;4.60;;;15.00;99.90;;;;;;5100333;28;20051;-72
2022/08/09 01:00:57;;;;;;;7.43;4.82;;;15.00;99.90;;;;;;5099306;28;20510;-71
2022/08/09 01:03:50;;;;;;;5.07;4.05;;;15.00;99.90;;;;;;5110929;28;20118;-71
2022/08/09 01:06:23;;;;;;;6.97;4.95;;;15.00;99.90;;;;;;5068072;28;20150;-71
2022/08/09 01:09:06;;;;;;;5.95;4.78;;;14.90;99.90;;;;;;5079423;28;20051;-72
2022/08/09 01:11:54;;;;;;;5.93;4.75;;;14.90;99.90;;;;;;5093141;28;20031;-72
2022/08/09 01:14:33;;;;;;;6.78;4.80;;;14.90;99.90;;;;;;5108139;28;20039;-71
2022/08/09 01:17:23;;;;;;;6.38;4.43;;;14.80;99.90;;;;;;5100051;28;20051;-71
2022/08/09 01:20:03;;;;;;;5.00;4.15;;;14.80;99.90;;;;;;5104740;28;20047;-72
2022/08/09 01:23:06;;;;;;;6.72;4.63;;;14.80;99.90;;;;;;5096793;28;20039;-72
2022/08/09 01:26:06;;;;;;;5.45;4.93;;;14.80;99.90;;;;;;5089794;28;20039;-71
2022/08/09 01:28:34;;;;;;;3.83;3.50;;;14.70;99.90;;;;;;5094066;28;20044;-71
2022/08/09 01:31:03;;;;;;;1.50;1.40;;;14.70;99.90;;;;;;5117842;28;20043;-71
2022/08/09 01:33:35;;;;;;;1.60;1.20;;;14.60;99.90;;;;;;5099508;28;20046;-71
2022/08/09 01:36:04;;;;;;;1.48;1.40;;;14.50;99.90;;;;;;5087645;28;20049;-72
2022/08/09 01:38:35;;;;;;;3.28;1.73;;;14.40;99.90;;;;;;5097800;28;20054;-72
2022/08/09 01:41:13;;;;;;;2.40;2.20;;;14.30;99.90;;;;;;5095659;28;20118;-71
2022/08/09 01:43:43;;;;;;;3.10;2.80;;;14.30;99.90;;;;;;5098549;28;20046;-71
2022/08/09 01:46:10;;;;;;;3.83;3.53;;;14.20;99.90;;;;;;5085512;28;20047;-71
2022/08/09 01:48:38;;;;;;;6.28;4.28;;;14.20;99.90;;;;;;5111994;28;20035;-71
2022/08/09 01:51:05;;;;;;;5.75;4.68;;;14.20;99.90;;;;;;5105481;28;20497;-71
2022/08/09 01:53:32;;;;;;;6.93;4.75;;;14.20;99.90;;;;;;5088314;28;20117;-71
2022/08/09 01:56:00;;;;;;;5.57;4.95;;;14.20;99.90;;;;;;5094978;28;20036;-71
2022/08/09 01:58:27;;;;;;;7.07;4.80;;;14.20;99.90;;;;;;5106417;28;20035;-71
2022/08/09 02:00:55;;;;;;;6.32;4.68;;;14.20;99.90;;;;;;5094574;28;20043;-71
2022/08/09 02:03:22;;;;;;;6.60;5.00;;;14.20;99.90;;;;;;5107161;28;20618;-71
2022/08/09 02:05:50;;;;;;;6.47;5.10;;;14.20;99.90;;;;;;5089198;28;20075;-72
2022/08/09 02:08:18;;;;;;;6.85;4.88;;;14.20;99.90;;;;;;5084121;28;20063;-71
2022/08/09 02:10:47;;;;;;;6.25;5.10;;;14.20;99.90;;;;;;5082271;28;20567;-71
2022/08/09 02:13:15;;;;;;;6.53;5.13;;;14.20;99.90;;;;;;5106182;28;20045;-71
2022/08/09 02:15:45;;;;;;;5.78;4.72;;;14.20;99.90;;;;;;5084403;28;20047;-72
2022/08/09 02:18:10;;;;;;;5.50;5.00;;;14.10;99.90;;;;;;5093769;28;20039;-71
2022/08/09 02:20:44;;;;;;;5.65;5.07;;;14.10;99.90;;;;;;5062256;28;20051;-71
2022/08/09 02:23:35;;;;;;;7.43;5.40;;;14.10;99.90;;;;;;5070503;28;20123;-72
2022/08/09 02:26:03;;;;;;;6.90;5.55;;;14.10;99.90;;;;;;5063891;28;20052;-71
2022/08/09 02:28:37;;;;;;;5.35;4.85;;;14.10;99.90;;;;;;5070619;28;20555;-72
2022/08/09 02:31:19;;;;;;;3.00;2.60;;;14.10;99.90;;;;;;5089551;28;20036;-72
2022/08/09 02:33:48;;;;;;;3.80;3.50;;;14.10;99.90;;;;;;5069064;28;20127;-71
2022/08/09 02:36:30;;;;;;;7.30;4.15;;;14.00;99.90;;;;;;5095269;28;20048;-72
2022/08/09 02:38:59;;;;;;;4.50;4.07;;;14.00;99.90;;;;;;5081721;28;20063;-71
2022/08/09 02:41:54;;;;;;;3.78;3.47;;;14.00;99.90;;;;;;5092941;28;20036;-72
2022/08/09 02:44:25;;;;;;;4.15;3.47;;;13.90;99.90;;;;;;5085684;28;20084;-71
2022/08/09 02:46:53;;;;;;;3.97;3.67;;;13.90;99.90;;;;;;5072996;28;20689;-71
2022/08/09 02:49:19;;;;;;;6.10;4.25;;;13.90;99.90;;;;;;5059423;28;20120;-72
2022/08/09 02:51:49;;;;;;;2.67;2.47;;;13.80;99.90;;;;;;5066716;28;20111;-71
2022/08/09 02:54:16;;;;;;;1.60;1.50;;;13.80;99.90;;;;;;5069061;28;20032;-71
2022/08/09 02:56:46;;;;;;;1.73;1.63;;;13.80;99.90;;;;;;5085188;28;20036;-72
2022/08/09 02:59:14;;;;;;;2.53;2.33;;;13.70;99.90;;;;;;5057667;28;20044;-72
2022/08/09 03:01:41;;;;;;;3.47;3.17;;;13.70;99.90;;;;;;5072866;28;20040;-72
2022/08/09 03:04:09;;;;;;;4.88;3.80;;;13.60;99.90;;;;;;5041813;28;20086;-71
2022/08/09 03:06:36;;;;;;;5.43;4.38;;;13.60;99.90;;;;;;5057564;28;20513;-72
2022/08/09 03:09:02;;;;;;;2.70;2.47;;;13.60;99.90;;;;;;5092422;28;20184;-71
2022/08/09 03:11:29;;;;;;;1.63;1.50;;;13.60;99.90;;;;;;5061512;28;20044;-72
2022/08/09 03:13:55;;;;;;;0.90;0.80;;;13.50;99.90;;;;;;5079942;28;20032;-71
2022/08/09 03:16:23;;;;;;;1.13;1.08;;;13.40;99.90;;;;;;5061096;28;20052;-71
2022/08/09 03:18:49;;;;;;;1.33;1.23;;;13.40;99.90;;;;;;5078616;28;20134;-71
2022/08/09 03:21:17;;;;;;;0.80;0.80;;;13.30;99.90;;;;;;5093618;28;20036;-71
2022/08/09 03:23:45;;;;;;;0.93;0.90;;;13.20;99.90;;;;;;5084410;28;20036;-71
2022/08/09 03:26:18;;;;;;;6.05;1.50;;;13.10;99.90;;;;;;5084527;28;20044;-71
2022/08/09 03:28:47;;;;;;;4.25;3.95;;;13.10;99.90;;;;;;5081885;28;20043;-72
2022/08/09 03:31:14;;;;;;;4.80;4.40;;;13.10;99.90;;;;;;5090345;28;20036;-71
2022/08/09 03:33:41;;;;;;;5.45;4.95;;;13.10;99.90;;;;;;5094746;28;20035;-71
2022/08/09 03:36:07;;;;;;;5.70;4.82;;;13.10;99.90;;;;;;5080584;28;20039;-70
2022/08/09 03:38:37;;;;;;;6.40;5.18;;;13.20;99.90;;;;;;5094406;28;20039;-71
2022/08/09 03:41:03;;;;;;;7.82;5.43;;;13.20;99.90;;;;;;5079865;28;20051;-71
2022/08/09 03:43:29;;;;;;;5.75;5.13;;;13.30;99.90;;;;;;5104802;28;20035;-71
2022/08/09 03:45:54;;;;;;;5.88;5.30;;;13.30;99.90;;;;;;5092721;28;20140;-71
2022/08/09 03:48:23;;;;;;;6.20;5.57;;;13.30;99.90;;;;;;5074114;28;20378;-71
2022/08/09 03:50:51;;;;;;;6.57;5.60;;;13.30;99.90;;;;;;5086416;28;20539;-71
2022/08/09 03:53:19;;;;;;;6.45;5.85;;;13.40;99.90;;;;;;5106595;28;20046;-71
2022/08/09 03:55:45;;;;;;;6.32;5.75;;;13.40;99.90;;;;;;5086819;28;20058;-70
2022/08/09 03:58:11;;;;;;;7.57;6.70;;;13.50;99.90;;;;;;5083448;28;20043;-71
2022/08/09 04:00:38;;;;;;;7.60;6.63;;;13.50;99.90;;;;;;5081327;28;20047;-71
2022/08/09 04:03:04;;;;;;;6.30;5.70;;;13.50;99.90;;;;;;5079565;28;20493;-72
2022/08/09 04:05:29;;;;;;;7.68;6.95;;;13.50;99.90;;;;;;5093628;28;20083;-72
2022/08/09 04:07:55;;;;;;;7.68;6.45;;;13.60;99.90;;;;;;5088713;28;20075;-71
2022/08/09 04:10:22;;;;;;;7.40;6.20;;;13.60;99.90;;;;;;5085979;28;20048;-71
2022/08/09 04:12:50;;;;;;;7.57;6.40;;;13.60;99.90;;;;;;5094122;28;20032;-71
2022/08/09 04:15:17;;;;;;;8.88;6.22;;;13.60;99.90;;;;;;5077736;28;20105;-72
2022/08/09 04:17:43;;;;;;;9.07;6.40;;;13.60;99.90;;;;;;5104547;28;20097;-72
2022/08/09 04:20:11;;;;;;;7.00;6.35;;;13.60;99.90;;;;;;5093645;28;20482;-72
2022/08/09 04:22:37;;;;;;;9.13;6.07;;;13.60;99.90;;;;;;5082531;28;20379;-71
2022/08/09 04:25:04;;;;;;;7.47;6.00;;;13.60;99.90;;;;;;5085610;28;20528;-72
2022/08/09 04:27:30;;;;;;;6.72;5.70;;;13.60;99.90;;;;;;5084454;28;20521;-72
2022/08/09 04:29:56;;;;;;;7.18;6.10;;;13.60;99.90;;;;;;5091228;28;20061;-71
2022/08/09 04:32:22;;;;;;;7.60;5.78;;;13.60;99.90;;;;;;5089761;28;20040;-72
2022/08/09 04:34:48;;;;;;;6.60;5.70;;;13.60;99.90;;;;;;5082698;28;20406;-71
2022/08/09 04:37:13;;;;;;;5.97;5.35;;;13.60;99.90;;;;;;5090708;28;20043;-72
2022/08/09 04:39:39;;;;;;;6.47;5.35;;;13.60;99.90;;;;;;5082021;28;20040;-71
2022/08/09 04:42:05;;;;;;;7.70;6.57;;;13.60;99.90;;;;;;5080627;28;20521;-71
2022/08/09 04:44:31;;;;;;;6.38;5.78;;;13.70;99.90;;;;;;5081528;28;20063;-71
2022/08/09 04:46:58;;;;;;;6.80;6.20;;;13.70;99.90;;;;;;5088844;28;20401;-72
2022/08/09 04:49:24;;;;;;;9.07;6.43;;;13.70;99.90;;;;;;5101359;28;20470;-72
2022/08/09 04:51:50;;;;;;;8.02;5.93;;;13.70;99.90;;;;;;5109302;28;20043;-71
2022/08/09 04:54:15;;;;;;;8.35;6.20;;;13.70;99.90;;;;;;5102092;28;20037;-72
2022/08/09 04:56:41;;;;;;;8.20;6.50;;;13.80;99.90;;;;;;5055731;28;20050;-71
2022/08/09 04:59:07;;;;;;;6.40;5.80;;;13.80;99.90;;;;;;5085202;28;20047;-71
2022/08/09 05:01:33;;;;;;;6.50;5.93;;;13.80;99.90;;;;;;5086822;28;20405;-72
2022/08/09 05:03:58;;;;;;;6.68;5.88;;;13.80;99.90;;;;;;5099180;28;20110;-72
2022/08/09 05:06:24;;;;;;;9.32;6.82;;;13.90;99.90;;;;;;5077895;28;20569;-71
2022/08/09 05:08:50;;;;;;;8.40;6.80;;;13.90;99.90;;;;;;5080459;28;20538;-72
2022/08/09 05:11:16;;;;;;;7.22;6.53;;;14.00;99.90;;;;;;5079628;28;20047;-71
2022/08/09 05:13:42;;;;;;;6.53;5.93;;;14.00;99.90;;;;;;5085447;28;20487;-72
2022/08/09 05:16:08;;;;;;;7.03;6.15;;;14.00;99.90;;;;;;5087850;28;20127;-72
2022/08/09 05:18:34;;;;;;;6.70;6.07;;;14.00;99.90;;;;;;5094474;28;20487;-71
2022/08/09 05:21:00;;;;;;;7.20;6.50;;;14.10;99.90;;;;;;5094777;28;20042;-72
2022/08/09 05:23:26;;;;;;;8.02;6.20;;;14.10;99.90;;;;;;5087178;28;20526;-72
2022/08/09 05:25:52;;;;;;;9.45;7.00;;;14.10;99.90;;;;;;5077976;28;20487;-72
2022/08/09 05:28:18;;;;;;;8.23;6.93;;;14.20;99.90;;;;;;5093422;28;20547;-70
2022/08/09 05:30:44;;;;;;;9.98;7.00;;;14.20;99.90;;;;;;5082119;28;20086;-71
2022/08/09 05:33:10;;;;;;;8.23;7.38;;;14.20;99.90;;;;;;5093302;28;20047;-72
2022/08/09 05:35:36;;;;;;;7.57;6.88;;;14.30;99.90;;;;;;5082083;28;20394;-71
2022/08/09 05:38:01;;;;;;;8.27;6.38;;;14.30;99.90;;;;;;5072976;28;20059;-72
2022/08/09 05:40:27;;;;;;;7.10;6.22;;;14.30;99.90;;;;;;5085028;28;20494;-72
2022/08/09 05:42:56;;;;;;;8.38;6.47;;;14.40;99.90;;;;;;5088918;28;20098;-71
2022/08/09 05:45:22;;;;;;;7.72;6.90;;;14.40;99.90;;;;;;5088564;28;20058;-70
2022/08/09 05:47:48;;;;;;;7.13;6.47;;;14.40;99.90;;;;;;5075500;28;20491;-71
2022/08/09 05:50:13;;;;;;;6.82;6.07;;;14.50;99.90;;;;;;5072728;28;20040;-72
2022/08/09 05:52:41;;;;;;;8.25;7.22;;;14.50;99.90;;;;;;5058724;28;20587;-71
2022/08/09 05:55:07;;;;;;;8.02;7.15;;;14.60;99.90;;;;;;5084009;28;20044;-71
2022/08/09 05:57:34;;;;;;;8.70;7.78;;;14.60;99.90;;;;;;5074941;28;20090;-71
2022/08/09 05:59:59;;;;;;;12.43;7.78;;;14.70;99.90;;;;;;5085081;28;20078;-72
2022/08/09 06:02:25;;;;;;;9.95;7.07;;;14.70;99.90;;;;;;5086405;28;20429;-71
2022/08/09 06:04:51;;;;;;;8.23;7.15;;;14.80;99.90;;;;;;5083015;28;20042;-71
2022/08/09 06:07:17;;;;;;;9.73;7.60;;;14.80;99.90;;;;;;5078687;28;20123;-71
2022/08/09 06:09:42;;;;;;;7.65;6.90;;;14.90;99.90;;;;;;5085876;28;20040;-72
2022/08/09 06:12:08;;;;;;;9.25;7.78;;;15.00;99.90;;;;;;5087304;28;20132;-72
2022/08/09 06:14:34;;;;;;;9.52;7.95;;;15.00;99.90;;;;;;5084697;28;20037;-72
2022/08/09 06:16:59;;;;;;;11.38;7.50;;;15.10;99.90;;;;;;5084953;28;20051;-72
2022/08/09 06:19:25;;;;;;;8.73;7.35;;;15.20;99.90;;;;;;5085036;28;20049;-71
2022/08/09 06:21:50;;;;;;;11.57;7.72;;;15.30;99.90;;;;;;5091404;28;20112;-72
2022/08/09 06:24:16;;;;;;;9.35;7.72;;;15.40;99.90;;;;;;5083362;28;20059;-72
2022/08/09 06:26:42;;;;;;;11.13;8.10;;;15.50;99.90;;;;;;5080184;28;20067;-72
2022/08/09 06:29:08;;;;;;;10.60;7.93;;;15.60;99.90;;;;;;5092110;28;20490;-71
2022/08/09 06:31:35;;;;;;;11.65;8.07;;;15.70;99.90;;;;;;5083233;28;20044;-72
2022/08/09 06:34:02;;;;;;;11.70;7.57;;;15.80;99.90;;;;;;5092268;28;20036;-71
2022/08/09 06:36:28;;;;;;;11.73;7.78;;;15.90;99.90;;;;;;5092164;28;20470;-72
2022/08/09 06:38:54;;;;;;;14.43;7.63;;;16.00;99.90;;;;;;5076293;28;20127;-72
2022/08/09 06:41:19;;;;;;;12.98;8.07;;;16.10;99.90;;;;;;5081766;28;20101;-72
2022/08/09 06:43:46;;;;;;;13.13;7.72;;;16.20;99.90;;;;;;5078214;28;20041;-72
2022/08/09 06:46:12;;;;;;;8.32;7.43;;;16.30;99.90;;;;;;5084082;28;20037;-72
2022/08/09 06:48:39;;;;;;;10.73;7.53;;;16.40;99.90;;;;;;5090501;28;20082;-72
2022/08/09 06:51:05;;;;;;;8.43;7.07;;;16.40;99.90;;;;;;5096948;28;20031;-71
2022/08/09 06:53:31;;;;;;;10.00;6.72;;;16.60;99.90;;;;;;5078305;28;20044;-72
2022/08/09 06:55:59;;;;;;;9.00;6.95;;;16.70;99.90;;;;;;5084448;28;20043;-72
2022/08/09 06:58:25;;;;;;;7.90;5.80;;;16.80;99.90;;;;;;5085469;28;20043;-72
2022/08/09 07:00:50;;;;;;;11.70;5.85;;;16.90;99.90;;;;;;5071633;28;20057;-72
2022/08/09 07:03:16;;;;;;;13.63;6.13;;;16.90;99.90;;;;;;5078026;28;20044;-71
2022/08/09 07:05:41;;;;;;;6.35;4.65;;;17.10;99.90;;;;;;5086161;28;20048;-72
2022/08/09 07:08:07;;;;;;;8.90;4.97;;;17.20;99.90;;;;;;5071387;28;20048;-72
2022/08/09 07:10:33;;;;;;;9.40;5.20;;;17.30;99.90;;;;;;5085022;28;20487;-71
2022/08/09 07:12:59;;;;;;;14.82;4.03;;;17.40;99.90;;;;;;5082874;28;20123;-72
2022/08/09 07:15:26;;;;;;;6.25;3.45;;;17.50;99.90;;;;;;5073573;28;20040;-72
2022/08/09 07:17:51;;;;;;;8.35;3.22;;;17.70;99.90;;;;;;5094080;28;20044;-72
2022/08/09 07:20:17;;;;;;;4.32;2.30;;;17.80;99.90;;;;;;5074122;28;20521;-72
2022/08/09 07:22:43;;;;;;;4.75;2.25;;;17.90;99.90;;;;;;5052230;28;20043;-72
2022/08/09 07:25:09;;;;;;;3.53;2.00;;;17.90;99.90;;;;;;5074151;28;20484;-72
2022/08/09 07:27:36;;;;;;;3.50;2.10;;;18.00;99.90;;;;;;5074039;28;20118;-72
2022/08/09 07:30:02;;;;;;;6.03;2.35;;;18.20;99.90;;;;;;5074331;28;20047;-72
2022/08/09 07:32:28;;;;;;;3.35;1.90;;;18.30;99.90;;;;;;5066924;28;20085;-72
2022/08/09 07:34:54;;;;;;;5.50;2.22;;;18.40;99.90;;;;;;5074597;28;20089;-72
2022/08/09 07:37:20;;;;;;;4.50;2.30;;;18.50;99.90;;;;;;5073952;28;20052;-72
2022/08/09 07:39:45;;;;;;;4.40;1.85;;;18.70;99.90;;;;;;5090166;28;20043;-72
2022/08/09 07:42:11;;;;;;;3.75;2.00;;;18.80;99.90;;;;;;5074414;28;20044;-72
2022/08/09 07:44:37;;;;;;;4.78;1.83;;;18.90;99.90;;;;;;5074477;28;20115;-72
2022/08/09 07:47:02;;;;;;;5.53;1.90;;;19.10;99.90;;;;;;5073770;28;20044;-72
2022/08/09 07:49:28;;;;;;;3.47;1.90;;;19.20;99.90;;;;;;5057473;28;20066;-72
2022/08/09 07:51:53;;;;;;;3.80;1.50;;;19.30;99.90;;;;;;5074048;28;20036;-72
2022/08/09 07:54:19;;;;;;;4.35;1.55;;;19.40;99.90;;;;;;5073729;28;20044;-72
2022/08/09 07:56:45;;;;;;;2.92;1.40;;;19.60;99.90;;;;;;5070754;28;20051;-72
2022/08/09 07:59:10;;;;;;;4.10;1.45;;;19.70;99.90;;;;;;5091864;28;20035;-72
2022/08/09 08:01:36;;;;;;;6.22;1.38;;;19.80;99.90;;;;;;5071562;28;20040;-72
2022/08/09 08:04:02;;;;;;;5.60;1.52;;;19.80;99.90;;;;;;5070840;28;20036;-71
2022/08/09 08:06:28;;;;;;;2.97;1.33;;;19.80;99.90;;;;;;5057140;28;20070;-71
2022/08/09 08:08:54;;;;;;;2.67;1.50;;;19.80;99.90;;;;;;5073548;28;20040;-72
2022/08/09 08:11:20;;;;;;;5.13;1.33;;;19.90;99.90;;;;;;5077731;28;20094;-72
2022/08/09 08:13:46;;;;;;;4.18;1.45;;;20.00;99.90;;;;;;5062017;28;20127;-72
2022/08/09 08:16:12;;;;;;;2.35;1.40;;;20.00;99.90;;;;;;5078996;28;20521;-72
2022/08/09 08:18:37;;;;;;;3.20;1.30;;;20.10;99.90;;;;;;5084970;28;20096;-73
2022/08/09 08:21:03;;;;;;;3.03;1.38;;;20.20;99.90;;;;;;5074029;28;20044;-72
2022/08/09 08:23:29;;;;;;;6.20;1.80;;;20.30;99.90;;;;;;5075802;28;20123;-72
2022/08/09 08:25:55;;;;;;;6.63;1.50;;;20.40;99.90;;;;;;5084025;28;20040;-72
2022/08/09 08:28:21;;;;;;;6.00;1.45;;;20.60;99.90;;;;;;5073096;28;20058;-72
2022/08/09 08:30:47;;;;;;;5.47;1.45;;;20.70;99.90;;;;;;5054215;28;20490;-72
2022/08/09 08:33:13;;;;;;;2.88;1.30;;;20.90;99.90;;;;;;5073635;28;20097;-72
2022/08/09 08:35:38;;;;;;;4.43;1.42;;;20.90;99.90;;;;;;5073854;28;20097;-72
2022/08/09 08:38:04;;;;;;;3.47;1.38;;;21.10;99.90;;;;;;5073369;28;20498;-72
2022/08/09 08:40:31;;;;;;;3.08;1.20;;;21.20;99.90;;;;;;5090817;28;20036;-72
2022/08/09 08:42:58;;;;;;;5.97;1.40;;;21.40;99.90;;;;;;5061290;28;20040;-72
2022/08/09 08:45:32;;;;;;;3.33;0.95;;;21.60;99.90;;;;;;5083818;28;20044;-72
2022/08/09 08:47:58;;;;;;;3.50;1.17;;;21.70;99.90;;;;;;5070968;28;20119;-71
2022/08/09 08:50:24;;;;;;;3.50;1.38;;;21.90;99.90;;;;;;5070154;28;20078;-72
2022/08/09 08:52:51;;;;;;;2.03;1.10;;;22.00;99.90;;;;;;5059844;28;20040;-72
2022/08/09 08:55:17;;;;;;;2.42;1.10;;;22.10;99.90;;;;;;5095557;28;20123;-71
2022/08/09 08:57:44;;;;;;;2.28;1.20;;;22.20;99.90;;;;;;5065949;28;20032;-71
2022/08/09 09:00:11;;;;;;;2.25;1.13;;;22.30;99.90;;;;;;5075070;28;20127;-72
2022/08/09 09:02:38;;;;;;;2.47;1.05;;;22.50;99.90;;;;;;5092634;28;20048;-72
2022/08/09 09:05:04;;;;;;;2.22;0.95;;;22.60;99.90;;;;;;5060521;28;20040;-71
2022/08/09 09:07:32;;;;;;;2.72;0.80;;;22.80;99.90;;;;;;5077253;28;20040;-71
2022/08/09 09:10:02;;;;;;;3.10;1.10;;;22.90;99.90;;;;;;5095224;28;20036;-72
2022/08/09 09:12:30;;;;;;;2.42;0.85;;;23.00;99.90;;;;;;5077000;28;20047;-71
2022/08/09 09:15:00;;;;;;;2.95;0.73;;;23.20;99.90;;;;;;5072670;28;20075;-70
2022/08/09 09:17:25;;;;;;;5.07;0.98;;;23.40;99.90;;;;;;5072670;28;20035;-72
2022/08/09 09:19:52;;;;;;;1.45;0.82;;;23.50;99.90;;;;;;5072810;28;20539;-71
2022/08/09 09:22:19;;;;;;;1.15;0.70;;;23.70;99.90;;;;;;5060993;28;20028;-71
2022/08/09 09:24:49;;;;;;;2.17;0.80;;;23.90;99.90;;;;;;5077640;28;20040;-71
2022/08/09 09:27:21;;;;;;;2.72;0.80;;;24.10;99.90;;;;;;5067886;28;20049;-71
2022/08/09 09:29:47;;;;;;;2.75;0.80;;;24.20;99.90;;;;;;5088772;28;20041;-71
2022/08/09 09:32:19;;;;;;;2.58;0.95;;;24.40;99.90;;;;;;5084688;28;20051;-72
2022/08/09 09:35:08;;;;;;;3.10;0.80;;;24.60;99.90;;;;;;5069194;28;20043;-72
2022/08/09 09:37:34;;;;;;;2.75;0.80;;;24.70;99.90;;;;;;5049332;28;20143;-72
2022/08/09 09:40:00;;;;;;;1.65;0.80;;;24.60;99.90;;;;;;5072099;28;20079;-72
2022/08/09 09:42:28;;;;;;;2.10;0.80;;;24.60;99.90;;;;;;5089346;28;20055;-72
2022/08/09 09:44:57;;;;;;;2.05;1.00;;;24.60;99.90;;;;;;5063299;28;20044;-72
2022/08/09 09:47:23;;;;;;;2.17;0.90;;;24.60;99.90;;;;;;5086243;28;20043;-72
2022/08/09 09:49:50;;;;;;;1.58;0.70;;;24.60;99.90;;;;;;5070691;28;20036;-72
2022/08/09 09:52:16;;;;;;;1.25;0.80;;;24.60;99.90;;;;;;5076554;28;20089;-72
2022/08/09 09:54:46;;;;;;;1.00;0.63;;;24.60;99.90;;;;;;5083027;28;20048;-72
2022/08/09 09:57:23;;;;;;;1.58;0.70;;;24.50;99.90;;;;;;5076192;28;20044;-72
2022/08/09 09:59:51;;;;;;;1.77;0.80;;;24.50;99.90;;;;;;5095564;28;20042;-72
2022/08/09 10:02:17;;;;;;;1.40;0.73;;;24.60;99.90;;;;;;5096917;28;20044;-72
2022/08/09 10:04:44;;;;;;;1.33;0.70;;;24.70;99.90;;;;;;5103513;28;20036;-72
2022/08/09 10:07:39;;;;;;;1.20;0.70;;;24.70;99.90;;;;;;5059223;28;20055;-72
2022/08/09 10:10:05;;;;;;;2.58;0.68;;;24.70;99.90;;;;;;5067390;28;20055;-72
2022/08/09 10:12:37;;;;;;;1.27;0.70;;;24.80;99.90;;;;;;5069066;28;20574;-72
2022/08/09 10:15:14;;;;;;;0.95;0.43;;;25.10;99.50;;;;;;5076171;28;20044;-72
2022/08/09 10:17:45;;;;;;;1.38;0.45;;;25.30;98.50;;;;;;5075671;28;20044;-72
2022/08/09 10:20:18;;;;;;;7.25;0.90;;;25.40;97.60;;;;;;5075542;28;20036;-72
2022/08/09 10:22:43;;;;;;;1.15;0.63;;;25.70;97.20;;;;;;5090057;28;20043;-72
2022/08/09 10:25:09;;;;;;;1.42;0.55;;;25.90;97.00;;;;;;5065718;28;20558;-72
2022/08/09 10:27:35;;;;;;;0.77;0.50;;;25.80;96.90;;;;;;5056292;28;20056;-72
2022/08/09 10:30:03;;;;;;;2.08;0.93;;;25.90;96.40;;;;;;5081038;28;20111;-72
2022/08/09 10:32:29;;;;;;;1.05;0.52;;;26.00;95.60;;;;;;5092830;28;20036;-72
2022/08/09 10:34:55;;;;;;;1.40;0.50;;;26.00;94.90;;;;;;5046538;28;20050;-72
2022/08/09 10:37:21;;;;;;;1.02;0.50;;;26.20;95.30;;;;;;5074900;28;20044;-72
2022/08/09 10:39:48;;;;;;;1.42;0.60;;;26.40;94.00;;;;;;5062735;28;20039;-72
2022/08/09 10:42:14;;;;;;;0.80;0.57;;;26.40;94.00;;;;;;5092377;28;20040;-72
2022/08/09 10:44:43;;;;;;;3.10;0.68;;;26.40;93.60;;;;;;5069557;28;20559;-72
2022/08/09 10:47:33;;;;;;;1.05;0.57;;;26.50;92.70;;;;;;5055023;28;20052;-72
2022/08/09 10:50:17;;;;;;;0.88;0.47;;;26.70;92.50;;;;;;5064693;28;20036;-72
2022/08/09 10:53:04;;;;;;;0.90;0.60;;;26.80;91.30;;;;;;5058361;28;20050;-72
2022/08/09 10:55:32;;;;;;;5.00;0.77;;;27.00;90.60;;;;;;5059792;28;20788;-72
2022/08/09 10:57:58;;;;;;;1.02;0.50;;;27.10;89.40;;;;;;5062728;28;20040;-72
2022/08/09 11:00:30;;;;;;;0.60;0.40;;;27.30;87.20;;;;;;5061104;28;20067;-72
2022/08/09 11:02:56;;;;;;;1.00;0.55;;;27.40;85.60;;;;;;5061648;28;20037;-72
2022/08/09 11:05:23;;;;;;;0.93;0.50;;;27.50;84.80;;;;;;5051631;28;20048;-72
2022/08/09 11:07:49;;;;;;;1.45;0.57;;;27.60;83.10;;;;;;5062130;28;20093;-72
2022/08/09 11:10:40;;;;;;;1.00;0.50;;;27.70;84.60;;;;;;5061072;28;20070;-72
2022/08/09 11:13:16;;;;;;;0.60;0.60;;;28.00;81.90;;;;;;5073838;28;20040;-72
2022/08/09 11:15:43;;;;;;;0.50;0.50;;;28.20;81.90;;;;;;5061791;28;20047;-72
2022/08/09 11:18:11;;;;;;;0.45;0.45;;;28.30;79.20;;;;;;5076187;28;20044;-72
2022/08/09 11:20:41;;;;;;;4.57;0.40;;;28.30;73.00;;;;;;5056768;28;20044;-72
2022/08/09 11:23:07;;;;;;;1.35;0.50;;;28.20;71.70;;;;;;5065664;28;20048;-72
2022/08/09 11:25:35;;;;;;;1.17;0.50;;;28.30;72.10;;;;;;5058801;28;20047;-72
2022/08/09 11:28:32;;;;;;;1.85;0.80;;;28.40;72.30;;;;;;5064743;28;20051;-72
2022/08/09 11:30:59;;;;;;;0.40;0.40;;;28.60;72.60;;;;;;5060890;28;20039;-72
2022/08/09 11:33:37;;;;;;;1.67;0.60;;;28.50;72.00;;;;;;5061013;28;20582;-72
2022/08/09 11:36:03;;;;;;;0.40;0.40;;;28.60;69.60;;;;;;5056058;28;20048;-72
2022/08/09 11:38:30;;;;;;;0.73;0.50;;;28.60;72.40;;;;;;5055606;28;20513;-72
2022/08/09 11:40:56;;;;;;;1.13;0.50;;;28.60;73.00;;;;;;5066235;28;20036;-72
2022/08/09 11:43:25;;;;;;;0.50;0.47;;;28.70;73.10;;;;;;5072113;28;20159;-72
2022/08/09 11:46:02;;;;;;;1.58;0.50;;;28.90;70.70;;;;;;5054238;28;20495;-72
2022/08/09 11:48:30;;;;;;;1.55;0.40;;;29.10;71.00;;;;;;5069009;28;20767;-72
2022/08/09 11:50:56;;;;;;;0.57;0.50;;;29.20;70.80;;;;;;5073930;28;20044;-72
2022/08/09 11:53:25;;;;;;;0.95;0.47;;;29.20;69.30;;;;;;5055581;28;20038;-72
2022/08/09 11:55:53;;;;;;;0.60;0.47;;;29.20;69.20;;;;;;5081784;28;20486;-72
2022/08/09 11:58:19;;;;;;;0.85;0.70;;;29.10;68.70;;;;;;5078210;28;20441;-72
2022/08/09 12:01:00;;;;;;;1.90;0.50;;;29.20;68.80;;;;;;5073603;28;20048;-72
2022/08/09 12:03:27;;;;;;;1.35;0.40;;;29.40;67.80;;;;;;5060181;28;20035;-72
2022/08/09 12:05:56;;;;;;;2.33;0.50;;;29.50;66.20;;;;;;5062848;28;20434;-72
2022/08/09 12:08:23;;;;;;;1.02;0.52;;;29.70;67.00;;;;;;5076161;28;20036;-72
2022/08/09 12:10:53;;;;;;;1.45;0.50;;;29.70;67.30;;;;;;5084944;28;20036;-72
2022/08/09 12:13:34;;;;;;;1.05;0.40;;;29.70;64.00;;;;;;5078328;28;20035;-72
2022/08/09 12:16:07;;;;;;;2.22;0.60;;;29.70;65.30;;;;;;5064879;28;20039;-72
2022/08/09 12:18:35;;;;;;;0.55;0.40;;;29.70;64.10;;;;;;5091311;28;20109;-73
2022/08/09 12:21:04;;;;;;;1.08;0.50;;;29.80;64.10;;;;;;5073756;28;20066;-72
2022/08/09 12:23:32;;;;;;;0.57;0.40;;;29.80;65.50;;;;;;5068528;28;20076;-72
2022/08/09 12:25:58;;;;;;;1.25;0.50;;;29.80;64.10;;;;;;5063821;28;20048;-72
2022/08/09 12:28:25;;;;;;;0.55;0.40;;;29.90;63.90;;;;;;5059022;28;20176;-72
2022/08/09 12:30:52;;;;;;;0.30;0.30;;;30.00;63.20;;;;;;5063767;28;20029;-72
2022/08/09 12:33:19;;;;;;;2.85;0.57;;;30.10;65.10;;;;;;5067039;28;20043;-72
2022/08/09 12:35:46;;;;;;;0.68;0.60;;;30.20;64.10;;;;;;5080752;28;20062;-72
2022/08/09 12:38:24;;;;;;;0.50;0.50;;;30.30;62.40;;;;;;5060394;28;20792;-72
2022/08/09 12:40:51;;;;;;;0.88;0.60;;;30.30;62.80;;;;;;5090231;28;20082;-72
2022/08/09 12:43:22;;;;;;;1.70;0.30;;;30.40;62.30;;;;;;5066447;28;20102;-72
2022/08/09 12:45:49;;;;;;;0.82;0.50;;;30.40;61.40;;;;;;5065930;28;20063;-72
2022/08/09 12:48:16;;;;;;;1.75;0.40;;;30.50;62.50;;;;;;5059181;28;20097;-72
2022/08/09 12:50:42;;;;;;;1.27;0.32;;;30.50;61.80;;;;;;5060557;28;20106;-72